Terminal Aerodrome Forecast
Issued by NWS

Home | Current Version | Previous Version | Graphics & Text | Print | Product List | Glossary On
Versions: 1 2 3 4 5 6 7 8 9 10 11 12 13 14 15 16
000
FTUS43 KGRB 202300
TAFATW
TAF
KATW 202320Z 2100/2124 15005KT P6SM SCT025 BKN050 BKN080
      TEMPO 2100/2104 5SM -RA BR BKN025
     FM210400 VRB03KT 6SM BR SCT030 BKN060
      TEMPO 2104/2108 3SM -RA BR BKN025
     FM210800 VRB03KT 2SM BR SCT025 OVC050
     FM211500 VRB03KT 5SM -SHRA BR SCT030 OVC060=

USA.gov is the U.S. government's official web portal to all federal, state and local government web resources and services.